createdAt,value
2018-11-07T00:00:48.109Z,87.20
2018-11-07T00:03:25.545Z,87.20
2018-11-07T00:06:02.788Z,87.10
2018-11-07T00:08:39.414Z,86.70
2018-11-07T00:11:15.192Z,86.40
2018-11-07T00:13:51.110Z,86.00
2018-11-07T00:16:26.903Z,86.00
2018-11-07T00:19:03.634Z,85.90
2018-11-07T00:21:39.971Z,86.30
2018-11-07T00:24:16.698Z,86.60
2018-11-07T00:26:53.272Z,87.30
2018-11-07T00:29:29.875Z,87.20
2018-11-07T00:32:05.977Z,87.30
2018-11-07T00:34:41.821Z,87.10
2018-11-07T00:37:17.516Z,87.30
2018-11-07T00:39:53.278Z,87.20
2018-11-07T00:42:30.037Z,87.40
2018-11-07T00:45:08.441Z,87.70
2018-11-07T00:47:44.665Z,87.30
2018-11-07T00:50:20.510Z,87.70
2018-11-07T00:52:56.409Z,87.30
2018-11-07T00:55:32.054Z,87.70
2018-11-07T00:58:07.970Z,87.80
2018-11-07T01:00:43.506Z,87.00
2018-11-07T01:03:19.488Z,86.90
2018-11-07T01:05:55.520Z,86.40
2018-11-07T01:08:31.247Z,86.40
2018-11-07T01:11:07.218Z,86.10
2018-11-07T01:13:43.950Z,85.90
2018-11-07T01:16:19.737Z,86.10
2018-11-07T01:18:56.356Z,86.20
2018-11-07T01:21:32.110Z,86.00
2018-11-07T01:24:08.069Z,85.90
2018-11-07T01:26:43.799Z,85.90
2018-11-07T01:29:19.539Z,85.70
2018-11-07T01:31:55.514Z,85.50
2018-11-07T01:34:31.252Z,85.30
2018-11-07T01:37:07.065Z,85.70
2018-11-07T01:39:42.751Z,85.90
2018-11-07T01:42:18.706Z,86.10
2018-11-07T01:44:54.665Z,86.60
2018-11-07T01:47:30.504Z,86.80
2018-11-07T01:50:08.740Z,86.90
2018-11-07T01:52:45.140Z,87.30
2018-11-07T01:55:21.150Z,87.30
2018-11-07T01:57:57.259Z,87.60
2018-11-07T02:00:33.001Z,87.90
2018-11-07T02:03:09.058Z,88.50
2018-11-07T02:05:44.968Z,88.50
2018-11-07T02:08:20.764Z,88.80
2018-11-07T02:10:56.486Z,89.00
2018-11-07T02:13:32.158Z,89.20
2018-11-07T02:16:08.045Z,89.30
2018-11-07T02:18:43.819Z,89.70
2018-11-07T02:21:19.578Z,89.80
2018-11-07T02:23:55.330Z,90.10
2018-11-07T02:26:31.500Z,90.30
2018-11-07T02:29:11.997Z,90.50
2018-11-07T02:31:48.780Z,90.50
2018-11-07T02:34:24.657Z,90.50
2018-11-07T02:37:00.655Z,90.30
2018-11-07T02:39:36.427Z,90.10
2018-11-07T02:42:12.337Z,90.10
2018-11-07T02:44:47.988Z,90.20
2018-11-07T02:47:23.780Z,90.40
2018-11-07T02:49:59.730Z,90.40
2018-11-07T02:52:36.402Z,90.90
2018-11-07T02:55:12.993Z,90.60
2018-11-07T02:57:48.653Z,90.60
2018-11-07T03:00:24.526Z,90.90
2018-11-07T03:03:00.270Z,91.30
2018-11-07T03:05:36.193Z,91.20
2018-11-07T03:08:11.941Z,91.40
2018-11-07T03:10:47.851Z,91.90
2018-11-07T03:13:23.383Z,92.00
2018-11-07T03:15:59.236Z,92.00
2018-11-07T03:18:35.892Z,92.40
2018-11-07T03:21:11.971Z,92.20
2018-11-07T03:23:47.734Z,92.20
2018-11-07T03:26:23.448Z,92.20
2018-11-07T03:28:59.336Z,92.40
2018-11-07T03:31:34.958Z,92.30
2018-11-07T03:34:11.000Z,92.40
2018-11-07T03:36:46.720Z,92.20
2018-11-07T03:39:22.493Z,92.20
2018-11-07T03:41:58.492Z,92.20
2018-11-07T03:44:34.471Z,92.00
2018-11-07T03:47:10.225Z,91.90
2018-11-07T03:49:45.809Z,91.80
2018-11-07T03:52:22.172Z,91.40
2018-11-07T03:54:58.487Z,91.40
2018-11-07T03:57:34.587Z,91.30
2018-11-07T04:00:10.685Z,91.30
2018-11-07T04:02:47.104Z,91.50
2018-11-07T04:05:22.812Z,91.40
2018-11-07T04:07:58.554Z,91.40
2018-11-07T04:10:34.378Z,91.70
2018-11-07T04:13:10.366Z,91.70
2018-11-07T04:15:46.754Z,91.80
2018-11-07T04:18:22.882Z,92.00
2018-11-07T04:20:58.696Z,92.50
2018-11-07T04:23:34.718Z,92.70
2018-11-07T04:26:10.335Z,93.00
2018-11-07T04:28:46.140Z,93.20
2018-11-07T04:31:22.240Z,93.50
2018-11-07T04:33:57.983Z,93.70
2018-11-07T04:36:33.964Z,94.10
2018-11-07T04:39:10.265Z,94.30
2018-11-07T04:41:46.674Z,94.30
2018-11-07T04:44:22.506Z,94.50
2018-11-07T04:46:58.300Z,94.30
2018-11-07T04:49:34.022Z,94.20
2018-11-07T04:52:09.895Z,94.30
2018-11-07T04:54:45.665Z,94.80
2018-11-07T04:57:21.650Z,94.80
2018-11-07T04:59:57.796Z,94.80
2018-11-07T05:02:33.572Z,94.50
2018-11-07T05:05:09.341Z,94.60
2018-11-07T05:07:45.037Z,94.20
2018-11-07T05:10:22.776Z,94.50
2018-11-07T05:12:58.777Z,94.30
2018-11-07T05:15:34.437Z,94.00
2018-11-07T05:18:10.669Z,94.10
2018-11-07T05:20:46.479Z,94.30
2018-11-07T05:23:22.525Z,94.60
2018-11-07T05:25:59.238Z,94.80
2018-11-07T05:28:34.941Z,94.90
2018-11-07T05:31:10.508Z,94.80
2018-11-07T05:33:46.551Z,94.90
2018-11-07T05:36:22.781Z,94.70
2018-11-07T05:38:59.317Z,94.70
2018-11-07T05:41:35.055Z,94.90
2018-11-07T05:44:11.038Z,94.60
2018-11-07T05:46:46.850Z,94.60
2018-11-07T05:49:22.446Z,94.70
2018-11-07T05:51:58.238Z,94.70
2018-11-07T05:54:33.925Z,94.70
2018-11-07T05:57:10.082Z,94.50
2018-11-07T05:59:45.784Z,94.90
2018-11-07T06:02:22.554Z,94.70
2018-11-07T06:04:58.462Z,94.50
2018-11-07T06:07:34.043Z,94.50
2018-11-07T06:10:12.309Z,95.00
2018-11-07T06:12:47.989Z,95.20
2018-11-07T06:15:23.898Z,95.30
2018-11-07T06:18:00.606Z,95.30
2018-11-07T06:20:37.803Z,95.30
2018-11-07T06:23:13.889Z,95.30
2018-11-07T06:25:50.344Z,95.40
2018-11-07T06:28:26.921Z,95.50
2018-11-07T06:31:04.030Z,95.10
2018-11-07T06:33:40.082Z,95.30
2018-11-07T06:36:15.879Z,95.00
2018-11-07T06:38:51.812Z,94.90
2018-11-07T06:41:28.775Z,94.80
2018-11-07T06:44:04.476Z,94.70
2018-11-07T06:46:40.253Z,94.40
2018-11-07T06:49:16.192Z,94.30
2018-11-07T06:51:52.976Z,94.20
2018-11-07T06:54:29.926Z,93.90
2018-11-07T06:57:06.619Z,93.60
2018-11-07T06:59:43.027Z,93.30
2018-11-07T07:02:18.952Z,93.00
2018-11-07T07:04:54.821Z,92.80
2018-11-07T07:07:31.420Z,92.30
2018-11-07T07:10:09.523Z,92.10
2018-11-07T07:12:46.952Z,92.00
2018-11-07T07:15:22.839Z,91.60
2018-11-07T07:17:58.611Z,91.40
2018-11-07T07:20:35.328Z,91.20
2018-11-07T07:23:11.396Z,91.10
2018-11-07T07:25:48.094Z,90.90
2018-11-07T07:28:23.853Z,90.80
2018-11-07T07:31:00.624Z,90.60
2018-11-07T07:33:37.290Z,90.10
2018-11-07T07:36:12.950Z,89.80
2018-11-07T07:38:48.783Z,88.70
2018-11-07T07:41:25.619Z,88.00
2018-11-07T07:44:02.374Z,88.20
2018-11-07T07:46:38.152Z,86.90
2018-11-07T07:49:14.003Z,85.90
2018-11-07T07:51:50.693Z,85.50
2018-11-07T07:54:26.445Z,84.10
2018-11-07T07:57:02.534Z,84.70
2018-11-07T07:59:39.244Z,83.90
2018-11-07T08:02:15.796Z,82.70
2018-11-07T08:04:52.020Z,82.50
2018-11-07T08:07:28.601Z,82.70
2018-11-07T08:10:06.135Z,81.50
2018-11-07T08:12:43.403Z,80.20
2018-11-07T08:15:19.719Z,80.10
2018-11-07T08:17:56.134Z,79.70
2018-11-07T08:20:33.349Z,79.40
2018-11-07T08:23:09.983Z,78.90
2018-11-07T08:25:46.655Z,77.90
2018-11-07T08:28:23.196Z,78.20
2018-11-07T08:30:59.387Z,77.60
2018-11-07T08:33:35.999Z,76.80
2018-11-07T08:36:12.168Z,77.40
2018-11-07T08:38:49.553Z,76.70
2018-11-07T08:41:25.919Z,76.10
2018-11-07T08:44:02.422Z,76.60
2018-11-07T08:46:38.448Z,75.50
2018-11-07T08:49:14.991Z,74.80
2018-11-07T08:51:51.232Z,74.50
2018-11-07T08:54:27.628Z,74.90
2018-11-07T08:57:03.750Z,74.30
2018-11-07T08:59:39.691Z,73.30
2018-11-07T09:02:15.623Z,73.20
2018-11-07T09:04:51.385Z,73.00
2018-11-07T09:07:29.097Z,72.10
2018-11-07T09:10:05.853Z,72.10
2018-11-07T09:12:41.869Z,71.70
2018-11-07T09:15:20.847Z,71.60
2018-11-07T09:17:57.429Z,72.10
2018-11-07T09:20:33.479Z,70.30
2018-11-07T09:23:09.182Z,71.10
2018-11-07T09:25:45.155Z,70.10
2018-11-07T09:28:21.871Z,69.60
2018-11-07T09:30:57.777Z,70.00
2018-11-07T09:33:34.509Z,68.50
2018-11-07T09:36:10.448Z,68.80
2018-11-07T09:38:46.139Z,68.20
2018-11-07T09:41:22.880Z,67.70
2018-11-07T09:43:59.713Z,68.80
2018-11-07T09:46:36.550Z,68.40
2018-11-07T09:49:12.547Z,68.60
2018-11-07T09:51:49.245Z,67.40
2018-11-07T09:54:25.168Z,67.90
2018-11-07T09:57:01.828Z,67.50
2018-11-07T09:59:38.395Z,66.10
2018-11-07T10:02:14.550Z,67.20
2018-11-07T10:04:50.178Z,65.80
2018-11-07T10:07:26.100Z,65.90
2018-11-07T10:10:01.765Z,66.60
2018-11-07T10:12:38.055Z,67.20
2018-11-07T10:15:14.404Z,66.40
2018-11-07T10:17:52.003Z,64.60
2018-11-07T10:20:27.864Z,64.80
2018-11-07T10:23:04.576Z,64.00
2018-11-07T10:25:41.280Z,64.50
2018-11-07T10:28:18.390Z,65.20
2018-11-07T10:30:54.171Z,64.20
2018-11-07T10:33:29.992Z,64.30
2018-11-07T10:36:06.132Z,63.40
2018-11-07T10:38:42.792Z,63.40
2018-11-07T10:41:18.679Z,63.40
2018-11-07T10:43:54.580Z,63.10
2018-11-07T10:46:31.359Z,63.40
2018-11-07T10:49:07.212Z,63.50
2018-11-07T10:51:43.070Z,63.50
2018-11-07T10:54:19.629Z,63.50
2018-11-07T10:56:55.345Z,63.10
2018-11-07T10:59:31.133Z,63.20
2018-11-07T11:02:12.018Z,63.20
2018-11-07T11:04:48.545Z,62.60
2018-11-07T11:07:24.244Z,62.50
2018-11-07T11:10:00.019Z,62.60
2018-11-07T11:12:36.733Z,61.90
2018-11-07T11:15:12.598Z,61.80
2018-11-07T11:17:48.588Z,61.50
2018-11-07T11:20:24.427Z,62.00
2018-11-07T11:23:01.073Z,62.80
2018-11-07T11:25:36.728Z,62.50
2018-11-07T11:28:12.598Z,62.40
2018-11-07T11:30:48.437Z,62.30
2018-11-07T11:33:24.282Z,61.40
2018-11-07T11:36:00.977Z,61.70
2018-11-07T11:38:37.594Z,62.10
2018-11-07T11:41:13.437Z,61.60
2018-11-07T11:43:49.187Z,61.80
2018-11-07T11:46:25.822Z,62.60
2018-11-07T11:49:01.736Z,61.80
2018-11-07T11:51:37.395Z,61.40
2018-11-07T11:54:13.132Z,61.70
2018-11-07T11:56:49.063Z,61.10
2018-11-07T11:59:25.169Z,61.30
2018-11-07T12:02:00.743Z,61.80
2018-11-07T12:04:36.393Z,62.20
2018-11-07T12:07:12.337Z,61.50
2018-11-07T12:09:49.042Z,61.40
2018-11-07T12:12:24.941Z,60.60
2018-11-07T12:15:00.854Z,61.20
2018-11-07T12:17:36.682Z,60.70
2018-11-07T12:20:12.892Z,61.10
2018-11-07T12:22:49.622Z,61.00
2018-11-07T12:25:26.130Z,61.00
2018-11-07T12:28:01.939Z,60.90
2018-11-07T12:30:37.683Z,60.50
2018-11-07T12:33:13.582Z,60.60
2018-11-07T12:35:49.718Z,61.70
2018-11-07T12:38:26.374Z,61.90
2018-11-07T12:41:03.023Z,61.40
2018-11-07T12:43:38.750Z,61.00
2018-11-07T12:46:14.502Z,61.10
2018-11-07T12:48:51.161Z,61.90
2018-11-07T12:51:27.079Z,62.10
2018-11-07T12:54:03.759Z,61.40
2018-11-07T12:56:39.744Z,61.30
2018-11-07T12:59:16.372Z,61.60
2018-11-07T13:01:53.046Z,61.70
2018-11-07T13:04:29.450Z,61.50
2018-11-07T13:07:05.583Z,61.90
2018-11-07T13:09:42.259Z,62.00
2018-11-07T13:12:17.862Z,63.30
2018-11-07T13:14:53.956Z,64.40
2018-11-07T13:17:29.683Z,65.40
2018-11-07T13:20:07.445Z,66.30
2018-11-07T13:22:44.346Z,66.70
2018-11-07T13:25:21.335Z,67.50
2018-11-07T13:27:58.059Z,68.10
2018-11-07T13:30:34.400Z,68.60
2018-11-07T13:33:10.196Z,69.00
2018-11-07T13:35:46.074Z,68.80
2018-11-07T13:38:22.874Z,69.40
2018-11-07T13:40:58.251Z,69.30
2018-11-07T13:43:34.060Z,69.80
2018-11-07T13:46:10.322Z,70.40
2018-11-07T13:48:46.544Z,70.20
2018-11-07T13:51:23.135Z,69.70
2018-11-07T13:53:59.150Z,69.80
2018-11-07T13:56:35.568Z,70.00
2018-11-07T13:59:12.345Z,70.20
2018-11-07T14:01:48.023Z,70.00
2018-11-07T14:04:23.818Z,70.10
2018-11-07T14:06:59.705Z,69.60
2018-11-07T14:09:35.445Z,68.70
2018-11-07T14:12:11.492Z,67.40
2018-11-07T14:14:47.354Z,67.40
2018-11-07T14:17:23.283Z,68.00
2018-11-07T14:19:59.132Z,68.90
2018-11-07T14:22:35.181Z,68.50
2018-11-07T14:25:12.421Z,67.40
2018-11-07T14:27:48.563Z,66.40
2018-11-07T14:30:25.302Z,65.30
2018-11-07T14:33:01.952Z,65.60
2018-11-07T14:35:37.894Z,66.10
2018-11-07T14:38:13.770Z,66.20
2018-11-07T14:40:50.476Z,66.50
2018-11-07T14:43:27.007Z,67.40
2018-11-07T14:46:02.800Z,68.90
2018-11-07T14:48:38.902Z,70.80
2018-11-07T14:51:15.462Z,72.60
2018-11-07T14:53:51.307Z,74.50
2018-11-07T14:56:28.033Z,76.00
2018-11-07T14:59:04.768Z,77.10
2018-11-07T15:01:41.046Z,78.20
2018-11-07T15:04:17.621Z,79.40
2018-11-07T15:06:54.736Z,80.10
2018-11-07T15:09:31.105Z,80.20
2018-11-07T15:12:08.032Z,81.40
2018-11-07T15:14:44.817Z,81.90
2018-11-07T15:17:20.930Z,82.60
2018-11-07T15:19:57.652Z,83.40
2018-11-07T15:22:33.814Z,83.90
2018-11-07T15:25:11.561Z,85.90
2018-11-07T15:27:52.116Z,86.70
2018-11-07T15:30:28.466Z,87.30
2018-11-07T15:33:04.340Z,88.00
2018-11-07T15:35:40.951Z,88.20
2018-11-07T15:38:17.140Z,88.50
2018-11-07T15:40:53.670Z,88.80
2018-11-07T15:43:29.452Z,89.00
2018-11-07T15:46:05.370Z,89.80
2018-11-07T15:48:41.356Z,90.20
2018-11-07T15:51:21.146Z,90.30
2018-11-07T15:53:57.854Z,90.60
2018-11-07T15:56:34.535Z,90.80
2018-11-07T15:59:11.001Z,90.80
2018-11-07T16:01:47.120Z,90.80
2018-11-07T16:04:24.441Z,90.90
2018-11-07T16:07:02.314Z,90.90
2018-11-07T16:09:37.988Z,91.10
2018-11-07T16:12:13.766Z,91.10
2018-11-07T16:14:49.682Z,91.20
2018-11-07T16:17:25.748Z,91.10
2018-11-07T16:20:01.340Z,91.10
2018-11-07T16:22:37.193Z,91.00
2018-11-07T16:25:13.048Z,90.80
2018-11-07T16:27:48.884Z,91.00
2018-11-07T16:30:25.661Z,91.00
2018-11-07T16:33:01.258Z,91.00
2018-11-07T16:35:37.153Z,91.10
2018-11-07T16:38:12.850Z,91.20
2018-11-07T16:40:48.577Z,91.20
2018-11-07T16:43:25.360Z,91.70
2018-11-07T16:46:01.988Z,91.40
2018-11-07T16:48:37.924Z,91.80
2018-11-07T16:51:13.854Z,91.80
2018-11-07T16:53:51.345Z,91.80
2018-11-07T16:56:27.193Z,91.90
2018-11-07T16:59:03.097Z,91.90
2018-11-07T17:01:38.917Z,92.00
2018-11-07T17:04:15.721Z,92.20
2018-11-07T17:06:51.516Z,92.40
2018-11-07T17:09:27.315Z,92.50
2018-11-07T17:12:02.998Z,92.60
2018-11-07T17:14:39.814Z,92.60
2018-11-07T17:17:16.770Z,92.50
2018-11-07T17:19:53.287Z,92.60
2018-11-07T17:22:29.273Z,92.80
2018-11-07T17:25:07.482Z,93.10
2018-11-07T17:27:44.267Z,93.10
2018-11-07T17:30:20.960Z,93.20
2018-11-07T17:32:58.063Z,93.40
2018-11-07T17:35:34.548Z,94.10
2018-11-07T17:38:11.282Z,94.30
2018-11-07T17:40:47.937Z,94.70
2018-11-07T17:43:23.929Z,94.90
2018-11-07T17:46:00.034Z,94.50
2018-11-07T17:48:37.007Z,94.60
2018-11-07T17:51:13.191Z,94.60
2018-11-07T17:53:53.482Z,94.00
2018-11-07T17:56:38.219Z,94.00
2018-11-07T17:59:16.429Z,93.80
2018-11-07T18:01:52.802Z,94.00
2018-11-07T18:04:29.635Z,94.40
2018-11-07T18:07:06.480Z,94.60
2018-11-07T18:09:43.139Z,94.60
2018-11-07T18:12:19.887Z,94.90
2018-11-07T18:14:56.636Z,94.90
2018-11-07T18:17:33.249Z,94.90
2018-11-07T18:20:11.943Z,94.60
2018-11-07T18:22:48.444Z,94.30
2018-11-07T18:25:24.465Z,94.30
2018-11-07T18:28:00.593Z,94.30
2018-11-07T18:30:37.061Z,94.70
2018-11-07T18:33:12.965Z,95.40
2018-11-07T18:35:50.048Z,95.20
2018-11-07T18:38:26.313Z,95.30
2018-11-07T18:41:03.167Z,95.50
2018-11-07T18:43:39.275Z,95.50
2018-11-07T18:46:16.091Z,95.30
2018-11-07T18:48:52.627Z,95.50
2018-11-07T18:51:29.247Z,95.20
2018-11-07T18:54:06.703Z,95.20
2018-11-07T18:56:43.212Z,95.30
2018-11-07T18:59:19.374Z,95.00
2018-11-07T19:01:56.155Z,94.80
2018-11-07T19:04:32.885Z,94.70
2018-11-07T19:07:10.566Z,94.80
2018-11-07T19:09:46.371Z,94.40
2018-11-07T19:12:22.337Z,94.50
2018-11-07T19:14:58.256Z,95.00
2018-11-07T19:17:33.996Z,94.80
2018-11-07T19:20:11.191Z,94.90
2018-11-07T19:22:47.869Z,94.90
2018-11-07T19:25:23.766Z,95.00
2018-11-07T19:27:59.724Z,94.90
2018-11-07T19:30:36.402Z,95.00
2018-11-07T19:33:12.243Z,95.30
2018-11-07T19:35:47.847Z,95.70
2018-11-07T19:38:23.715Z,95.60
2018-11-07T19:40:59.824Z,95.80
2018-11-07T19:43:36.485Z,96.00
2018-11-07T19:46:13.850Z,96.20
2018-11-07T19:48:50.067Z,96.40
2018-11-07T19:51:26.212Z,96.50
2018-11-07T19:54:02.810Z,96.60
2018-11-07T19:56:39.660Z,96.50
2018-11-07T19:59:15.620Z,96.30
2018-11-07T20:01:52.401Z,96.10
2018-11-07T20:04:32.914Z,96.00
2018-11-07T20:07:09.097Z,96.20
2018-11-07T20:09:45.720Z,96.50
2018-11-07T20:12:22.513Z,96.70
2018-11-07T20:14:59.160Z,96.50
2018-11-07T20:17:35.192Z,96.40
2018-11-07T20:20:12.464Z,96.50
2018-11-07T20:22:49.461Z,96.50
2018-11-07T20:25:26.042Z,96.50
2018-11-07T20:28:02.177Z,96.50
2018-11-07T20:30:38.190Z,96.90
2018-11-07T20:33:15.011Z,96.60
2018-11-07T20:35:52.125Z,96.40
2018-11-07T20:38:28.526Z,96.10
2018-11-07T20:41:05.818Z,96.10
2018-11-07T20:43:47.003Z,95.60
2018-11-07T20:46:23.092Z,95.40
2018-11-07T20:49:00.247Z,95.10
2018-11-07T20:51:36.649Z,94.90
2018-11-07T20:54:13.454Z,94.80
2018-11-07T20:56:50.328Z,94.80
2018-11-07T20:59:27.483Z,94.90
2018-11-07T21:02:03.922Z,95.00
2018-11-07T21:04:40.605Z,95.00
2018-11-07T21:07:16.997Z,95.10
2018-11-07T21:09:53.059Z,95.10
2018-11-07T21:12:29.826Z,95.40
2018-11-07T21:15:06.610Z,95.70
2018-11-07T21:17:43.230Z,96.00
2018-11-07T21:20:19.226Z,96.00
2018-11-07T21:22:55.832Z,95.80
2018-11-07T21:25:31.937Z,95.80
2018-11-07T21:28:09.307Z,96.00
2018-11-07T21:30:45.790Z,96.30
2018-11-07T21:33:22.462Z,96.30
2018-11-07T21:35:58.481Z,96.10
2018-11-07T21:38:34.284Z,96.10
2018-11-07T21:41:10.184Z,96.10
2018-11-07T21:43:46.813Z,96.10
2018-11-07T21:46:22.504Z,96.10
2018-11-07T21:48:58.560Z,96.20
2018-11-07T21:51:34.398Z,96.20
2018-11-07T21:54:10.185Z,96.30
2018-11-07T21:56:45.928Z,96.40
2018-11-07T21:59:21.755Z,96.50
2018-11-07T22:01:57.524Z,96.60
2018-11-07T22:04:34.669Z,96.70
2018-11-07T22:07:11.235Z,96.60
2018-11-07T22:09:47.265Z,96.50
2018-11-07T22:12:23.890Z,96.60
2018-11-07T22:14:59.740Z,96.70
2018-11-07T22:17:36.533Z,96.70
2018-11-07T22:20:20.829Z,96.70
2018-11-07T22:22:56.796Z,96.60
2018-11-07T22:25:32.683Z,96.60
2018-11-07T22:28:08.382Z,96.60
2018-11-07T22:30:44.190Z,96.80
2018-11-07T22:33:20.595Z,97.00
2018-11-07T22:35:56.818Z,97.10
2018-11-07T22:38:33.558Z,96.90
2018-11-07T22:41:09.097Z,97.40
2018-11-07T22:43:45.059Z,96.90
2018-11-07T22:46:20.741Z,96.90
2018-11-07T22:48:56.654Z,97.10
2018-11-07T22:51:33.592Z,97.40
2018-11-07T22:54:09.570Z,96.90
2018-11-07T22:56:46.339Z,97.00
2018-11-07T22:59:22.119Z,97.10
2018-11-07T23:01:57.682Z,97.20
2018-11-07T23:04:33.453Z,97.50
2018-11-07T23:07:10.057Z,97.80
2018-11-07T23:09:45.872Z,98.10
2018-11-07T23:12:21.540Z,97.90
2018-11-07T23:14:57.535Z,97.90
2018-11-07T23:17:33.329Z,97.90
2018-11-07T23:20:09.649Z,97.50
2018-11-07T23:22:45.911Z,97.50
2018-11-07T23:25:21.949Z,97.60
2018-11-07T23:27:58.645Z,97.80
2018-11-07T23:30:34.325Z,97.90
2018-11-07T23:33:10.074Z,98.60
2018-11-07T23:35:45.867Z,98.50
2018-11-07T23:38:22.548Z,98.50
2018-11-07T23:40:58.206Z,99.10
2018-11-07T23:43:34.245Z,99.10
2018-11-07T23:46:10.802Z,99.20
2018-11-07T23:48:46.904Z,99.20
2018-11-07T23:51:23.387Z,99.30
2018-11-07T23:53:59.312Z,99.70
2018-11-07T23:56:35.883Z,99.40
2018-11-07T23:59:11.812Z,99.30
